Time;durP1;ratioP1;P1;durP2;ratioP2;P2;SDS_P1;SDS_P2;PMS_P1;PMS_P2;Temp;Humidity;BMP_temperature;BMP_pressure;BME280_temperature;BME280_humidity;BME280_pressure;Samples;Min_cycle;Max_cycle;Signal;HPM_P1;HPM_P2
2021/06/19 00:01:36;;;;;;;9.43;4.82;;;19.70;99.90;;;;;;5052347;28;20025;-88
2021/06/19 00:04:03;;;;;;;9.10;4.93;;;19.70;99.90;;;;;;5052648;28;20028;-88
2021/06/19 00:06:28;;;;;;;9.63;4.93;;;19.80;99.90;;;;;;5053318;28;20029;-88
2021/06/19 00:08:54;;;;;;;8.88;4.53;;;19.70;99.90;;;;;;5047398;28;20023;-88
2021/06/19 00:11:20;;;;;;;11.02;5.05;;;19.70;99.90;;;;;;5045166;28;20025;-87
2021/06/19 00:13:45;;;;;;;6.82;5.25;;;19.60;99.90;;;;;;5049340;28;20452;-87
2021/06/19 00:16:11;;;;;;;9.25;5.15;;;19.60;99.90;;;;;;5044367;28;20444;-88
2021/06/19 00:18:37;;;;;;;11.30;4.95;;;19.70;99.90;;;;;;5051458;28;20021;-88
2021/06/19 00:21:03;;;;;;;9.45;4.70;;;19.60;99.90;;;;;;5046943;28;20028;-88
2021/06/19 00:23:31;;;;;;;12.18;5.00;;;19.60;99.90;;;;;;5091788;28;20064;-88
2021/06/19 00:25:56;;;;;;;10.00;4.78;;;19.60;99.90;;;;;;5048818;28;20021;-88
2021/06/19 00:28:23;;;;;;;9.85;5.05;;;19.70;99.90;;;;;;5083356;28;20025;-88
2021/06/19 00:30:50;;;;;;;10.35;4.75;;;19.70;99.90;;;;;;5041180;28;20037;-88
2021/06/19 00:33:15;;;;;;;10.75;5.38;;;19.70;99.90;;;;;;5037529;28;20025;-88
2021/06/19 00:35:41;;;;;;;12.30;5.25;;;19.80;99.90;;;;;;5050464;28;20033;-88
2021/06/19 00:38:07;;;;;;;8.13;4.82;;;19.80;99.90;;;;;;5050702;28;20029;-88
2021/06/19 00:40:33;;;;;;;10.23;5.03;;;19.80;99.90;;;;;;5043107;28;20018;-88
2021/06/19 00:43:01;;;;;;;8.52;5.18;;;19.80;99.90;;;;;;5046543;28;20055;-89
2021/06/19 00:45:29;;;;;;;10.80;5.80;;;19.80;99.90;;;;;;5040243;28;20041;-88
2021/06/19 00:47:56;;;;;;;11.25;5.75;;;19.80;99.90;;;;;;5077645;28;20123;-88
2021/06/19 00:50:23;;;;;;;10.70;5.38;;;19.80;99.90;;;;;;5040198;28;20037;-88
2021/06/19 00:52:49;;;;;;;13.15;5.53;;;19.80;99.90;;;;;;5042334;28;20024;-88
2021/06/19 00:55:15;;;;;;;10.02;5.82;;;19.80;99.90;;;;;;5046915;28;20454;-88
2021/06/19 00:57:41;;;;;;;12.88;6.10;;;19.80;99.90;;;;;;5050585;28;20045;-89
2021/06/19 01:00:09;;;;;;;13.60;6.38;;;19.80;99.90;;;;;;5047371;28;20501;-88
2021/06/19 01:02:36;;;;;;;10.50;5.55;;;19.80;99.90;;;;;;5038214;28;20035;-88
2021/06/19 01:05:04;;;;;;;9.10;5.70;;;19.80;99.90;;;;;;5049605;28;20404;-89
2021/06/19 01:07:29;;;;;;;15.20;6.55;;;19.80;99.90;;;;;;5047982;28;20028;-88
2021/06/19 01:09:55;;;;;;;12.68;6.32;;;19.80;99.90;;;;;;5041868;28;20498;-88
2021/06/19 01:12:24;;;;;;;11.23;6.15;;;19.80;99.90;;;;;;5048627;28;20089;-89
2021/06/19 01:14:54;;;;;;;11.80;6.20;;;19.70;99.90;;;;;;5048826;28;20036;-89
2021/06/19 01:17:21;;;;;;;9.85;5.80;;;19.70;99.90;;;;;;5049280;28;20025;-90
2021/06/19 01:20:06;;;;;;;8.18;6.00;;;19.70;99.90;;;;;;5048397;28;20052;-89
2021/06/19 01:22:33;;;;;;;11.52;6.78;;;19.70;99.90;;;;;;5050292;28;20016;-89
2021/06/19 01:25:00;;;;;;;11.15;5.97;;;19.70;99.90;;;;;;5040551;28;20040;-89
2021/06/19 01:27:30;;;;;;;16.00;6.60;;;19.70;99.90;;;;;;5035040;28;20198;-89
2021/06/19 01:29:57;;;;;;;12.48;6.30;;;19.70;99.90;;;;;;5041147;28;20029;-89
2021/06/19 01:32:26;;;;;;;11.43;6.30;;;19.70;99.90;;;;;;5050832;28;20246;-89
2021/06/19 01:34:52;;;;;;;12.98;6.22;;;19.70;99.90;;;;;;5064726;28;20030;-89
2021/06/19 01:37:17;;;;;;;10.70;5.72;;;19.70;99.90;;;;;;5050787;28;20250;-89
2021/06/19 01:39:44;;;;;;;9.43;6.65;;;19.80;99.90;;;;;;5047466;28;20571;-88
2021/06/19 01:42:10;;;;;;;14.77;7.35;;;19.70;99.90;;;;;;5045203;28;20036;-89
2021/06/19 01:44:35;;;;;;;11.10;7.38;;;19.70;99.90;;;;;;5049614;28;20021;-89
2021/06/19 01:47:01;;;;;;;13.05;6.72;;;19.60;99.90;;;;;;5042794;28;20404;-88
2021/06/19 01:49:37;;;;;;;10.90;6.75;;;19.60;99.90;;;;;;5045130;28;20088;-89
2021/06/19 01:52:04;;;;;;;12.75;6.38;;;19.70;99.90;;;;;;5035433;28;20033;-89
2021/06/19 01:54:38;;;;;;;14.20;6.50;;;19.70;99.90;;;;;;5049517;28;20067;-88
2021/06/19 01:57:07;;;;;;;12.35;6.90;;;19.70;99.90;;;;;;5048155;28;20043;-89
2021/06/19 01:59:36;;;;;;;14.30;6.53;;;19.80;99.90;;;;;;5045525;28;20037;-89
2021/06/19 02:02:03;;;;;;;11.80;6.65;;;19.80;99.90;;;;;;5035267;28;20460;-89
2021/06/19 02:04:31;;;;;;;11.85;6.63;;;19.90;99.90;;;;;;5047228;28;20025;-89
2021/06/19 02:06:57;;;;;;;12.60;6.75;;;19.80;99.90;;;;;;5082315;28;20593;-89
2021/06/19 02:09:23;;;;;;;11.10;6.53;;;19.90;99.90;;;;;;5042167;28;20048;-89
2021/06/19 02:11:49;;;;;;;11.15;6.57;;;19.90;99.90;;;;;;5046837;28;20033;-89
2021/06/19 02:14:16;;;;;;;12.85;7.28;;;19.90;99.90;;;;;;5043038;28;20103;-93
2021/06/19 02:16:44;;;;;;;13.73;6.75;;;19.80;99.90;;;;;;5046016;28;20083;-89
2021/06/19 02:19:11;;;;;;;15.25;7.53;;;19.80;99.90;;;;;;5047843;28;20059;-89
2021/06/19 02:21:37;;;;;;;14.50;7.18;;;19.70;99.90;;;;;;5049828;28;20056;-89
2021/06/19 02:24:03;;;;;;;11.68;7.40;;;19.70;99.90;;;;;;5045035;28;20057;-89
2021/06/19 02:26:28;;;;;;;10.30;6.82;;;19.70;99.90;;;;;;5063792;28;20064;-89
2021/06/19 02:28:54;;;;;;;14.25;7.25;;;19.70;99.90;;;;;;5048463;28;20029;-89
2021/06/19 02:31:21;;;;;;;14.75;7.97;;;19.60;99.90;;;;;;5048966;28;20112;-88
2021/06/19 02:33:47;;;;;;;16.20;8.48;;;19.60;99.90;;;;;;5047082;28;20029;-88
2021/06/19 02:36:14;;;;;;;12.77;8.00;;;19.60;99.90;;;;;;5043771;28;20040;-88
2021/06/19 02:38:40;;;;;;;18.45;8.20;;;19.60;99.90;;;;;;5047964;28;20493;-88
2021/06/19 02:41:05;;;;;;;12.18;7.45;;;19.50;99.90;;;;;;5049618;28;20055;-89
2021/06/19 02:43:31;;;;;;;9.88;7.68;;;19.50;99.90;;;;;;5047454;28;20022;-88
2021/06/19 02:45:59;;;;;;;14.07;7.93;;;19.50;99.90;;;;;;5039463;28;20025;-88
2021/06/19 02:48:28;;;;;;;14.13;8.07;;;19.50;99.90;;;;;;5048936;28;20053;-89
2021/06/19 02:50:54;;;;;;;11.07;7.60;;;19.50;99.90;;;;;;5043564;28;20078;-89
2021/06/19 02:53:20;;;;;;;14.77;8.13;;;19.50;99.90;;;;;;5049021;28;20021;-89
2021/06/19 02:55:46;;;;;;;14.48;7.90;;;19.50;99.90;;;;;;5038561;28;20040;-88
2021/06/19 02:58:13;;;;;;;13.65;7.35;;;19.40;99.90;;;;;;5046022;28;20041;-89
2021/06/19 03:00:40;;;;;;;13.02;8.57;;;19.40;99.90;;;;;;5036592;28;20060;-88
2021/06/19 03:03:07;;;;;;;12.38;7.80;;;19.50;99.90;;;;;;5039906;28;20370;-89
2021/06/19 03:05:34;;;;;;;12.13;8.15;;;19.50;99.90;;;;;;5040384;28;20029;-88
2021/06/19 03:08:00;;;;;;;13.07;8.35;;;19.50;99.90;;;;;;5047579;28;20033;-88
2021/06/19 03:10:35;;;;;;;17.30;8.00;;;19.40;99.90;;;;;;5047988;28;20186;-88
2021/06/19 03:13:00;;;;;;;17.70;8.20;;;19.40;99.90;;;;;;5046740;28;20433;-88
2021/06/19 03:15:27;;;;;;;14.13;8.30;;;19.40;99.90;;;;;;5043936;28;20021;-88
2021/06/19 03:17:53;;;;;;;12.85;8.32;;;19.30;99.90;;;;;;5047673;28;20025;-89
2021/06/19 03:20:19;;;;;;;9.77;8.30;;;19.40;99.90;;;;;;5042680;28;20030;-88
2021/06/19 03:22:49;;;;;;;13.35;7.95;;;19.40;99.90;;;;;;5045988;28;20105;-88
2021/06/19 03:25:18;;;;;;;14.65;8.38;;;19.30;99.90;;;;;;5043315;28;20032;-88
2021/06/19 03:27:44;;;;;;;10.95;7.63;;;19.40;99.90;;;;;;5045116;28;20021;-89
2021/06/19 03:30:10;;;;;;;15.65;8.07;;;19.30;99.90;;;;;;5041325;28;20033;-88
2021/06/19 03:32:39;;;;;;;15.13;8.75;;;19.30;99.90;;;;;;5041401;28;20016;-89
2021/06/19 03:35:07;;;;;;;16.08;8.77;;;19.20;99.90;;;;;;5044143;28;20043;-89
2021/06/19 03:37:34;;;;;;;17.02;9.52;;;19.20;99.90;;;;;;5052553;28;20024;-88
2021/06/19 03:39:59;;;;;;;14.35;9.15;;;19.10;99.90;;;;;;5039748;28;20452;-88
2021/06/19 03:42:25;;;;;;;16.70;9.27;;;18.90;99.90;;;;;;5052599;28;20017;-89
2021/06/19 03:44:51;;;;;;;10.52;8.70;;;18.90;99.90;;;;;;5043305;28;20086;-89
2021/06/19 03:47:17;;;;;;;20.85;9.13;;;18.90;99.90;;;;;;5052569;28;20021;-88
2021/06/19 03:49:43;;;;;;;14.55;8.70;;;18.80;99.90;;;;;;5042914;28;20500;-89
2021/06/19 03:52:08;;;;;;;15.25;8.65;;;18.80;99.90;;;;;;5052391;28;20481;-88
2021/06/19 03:54:37;;;;;;;13.27;8.68;;;18.80;99.90;;;;;;5051680;28;20432;-88
2021/06/19 03:57:05;;;;;;;11.35;8.00;;;18.90;99.90;;;;;;5046808;28;20149;-89
2021/06/19 03:59:31;;;;;;;16.02;7.95;;;18.80;99.90;;;;;;5051721;28;20405;-88
2021/06/19 04:01:58;;;;;;;12.15;7.40;;;18.90;99.90;;;;;;5046103;28;20070;-88
2021/06/19 04:04:23;;;;;;;12.52;8.20;;;18.80;99.90;;;;;;5047018;28;20029;-88
2021/06/19 04:06:49;;;;;;;14.35;7.45;;;18.80;99.90;;;;;;5049313;28;20033;-88
2021/06/19 04:09:16;;;;;;;12.95;7.28;;;18.80;99.90;;;;;;5050444;28;20029;-88
2021/06/19 04:11:42;;;;;;;11.20;7.18;;;18.90;99.90;;;;;;5042461;28;20464;-89
2021/06/19 04:14:08;;;;;;;14.07;7.57;;;18.90;99.90;;;;;;5050595;28;20021;-89
2021/06/19 04:16:34;;;;;;;13.93;7.30;;;18.90;99.90;;;;;;5040306;28;20025;-88
2021/06/19 04:19:00;;;;;;;13.38;7.55;;;18.90;99.90;;;;;;5047200;28;20086;-89
2021/06/19 04:21:25;;;;;;;12.68;8.18;;;18.80;99.90;;;;;;5050569;28;20025;-88
2021/06/19 04:23:51;;;;;;;13.75;7.53;;;18.80;99.90;;;;;;5047497;28;20404;-88
2021/06/19 04:26:17;;;;;;;12.43;7.78;;;18.80;99.90;;;;;;5046614;28;20029;-89
2021/06/19 04:28:42;;;;;;;13.25;7.40;;;18.80;99.90;;;;;;5046825;28;20108;-88
2021/06/19 04:31:08;;;;;;;13.75;7.43;;;18.70;99.90;;;;;;5039086;28;20048;-89
2021/06/19 04:33:34;;;;;;;12.55;7.45;;;18.80;99.90;;;;;;5045942;28;20300;-88
2021/06/19 04:36:01;;;;;;;15.25;7.80;;;18.70;99.90;;;;;;5040218;28;20577;-87
2021/06/19 04:38:27;;;;;;;12.40;7.88;;;18.70;99.90;;;;;;5048752;28;20489;-88
2021/06/19 04:41:21;;;;;;;9.95;7.45;;;18.70;99.90;;;;;;5051422;28;20025;-88
2021/06/19 04:46:14;;;;;;;19.52;9.23;;;18.70;99.90;;;;;;5045037;28;20062;-89
2021/06/19 04:48:39;;;;;;;16.05;8.88;;;18.60;99.90;;;;;;5049710;28;20033;-88
2021/06/19 04:51:05;;;;;;;16.27;9.02;;;18.50;99.90;;;;;;5043066;28;20043;-88
2021/06/19 04:53:31;;;;;;;14.90;9.25;;;18.50;99.90;;;;;;5050667;28;20020;-88
2021/06/19 04:56:00;;;;;;;15.20;8.45;;;18.50;99.90;;;;;;5041281;28;20029;-88
2021/06/19 04:58:26;;;;;;;24.80;10.02;;;18.50;99.90;;;;;;5050285;28;20044;-88
2021/06/19 05:00:52;;;;;;;19.90;10.02;;;18.50;99.90;;;;;;5042250;28;20017;-88
2021/06/19 05:03:18;;;;;;;17.08;9.98;;;18.40;99.90;;;;;;5050548;28;20383;-89
2021/06/19 05:05:44;;;;;;;16.05;9.20;;;18.40;99.90;;;;;;5045303;28;20025;-88
2021/06/19 05:08:10;;;;;;;21.20;9.20;;;18.30;99.90;;;;;;5050640;28;20047;-88
2021/06/19 05:10:36;;;;;;;19.67;8.70;;;18.40;99.90;;;;;;5044435;28;20041;-89
2021/06/19 05:13:02;;;;;;;14.88;9.48;;;18.40;99.90;;;;;;5048981;28;20017;-88
2021/06/19 05:15:28;;;;;;;21.05;8.73;;;18.40;99.90;;;;;;5043815;28;20026;-88
2021/06/19 05:17:55;;;;;;;20.40;9.20;;;18.50;99.90;;;;;;5048528;28;20504;-88
2021/06/19 05:20:21;;;;;;;17.75;9.32;;;18.50;99.90;;;;;;5044748;28;20645;-88
2021/06/19 05:22:48;;;;;;;15.20;9.55;;;18.40;99.90;;;;;;5048349;28;20044;-89
2021/06/19 05:25:14;;;;;;;18.77;9.95;;;18.40;99.90;;;;;;5046114;28;20409;-88
2021/06/19 05:27:42;;;;;;;15.70;9.13;;;18.40;99.90;;;;;;5044533;28;20048;-88
2021/06/19 05:30:10;;;;;;;16.08;9.40;;;18.40;99.90;;;;;;5046699;28;20518;-88
2021/06/19 05:32:35;;;;;;;16.85;9.75;;;18.50;99.90;;;;;;5031573;28;20018;-89
2021/06/19 05:35:01;;;;;;;13.07;9.30;;;18.50;99.90;;;;;;5046532;28;20395;-88
2021/06/19 05:37:27;;;;;;;15.15;9.38;;;18.50;99.90;;;;;;5043006;28;20013;-89
2021/06/19 05:39:54;;;;;;;13.13;9.63;;;18.60;99.90;;;;;;5048803;28;20021;-89
2021/06/19 05:42:20;;;;;;;12.60;9.75;;;18.70;99.90;;;;;;5073095;28;20029;-88
2021/06/19 05:44:46;;;;;;;14.02;8.43;;;18.80;99.90;;;;;;5044821;28;20033;-88
2021/06/19 05:47:12;;;;;;;15.02;8.90;;;18.80;99.90;;;;;;5037798;28;20047;-88
2021/06/19 05:49:37;;;;;;;14.30;8.65;;;19.00;99.90;;;;;;5041715;28;20042;-88
2021/06/19 05:52:04;;;;;;;14.20;7.93;;;19.00;99.90;;;;;;5049192;28;20371;-88
2021/06/19 05:54:35;;;;;;;11.50;7.32;;;19.20;99.90;;;;;;5040747;28;20029;-89
2021/06/19 05:57:02;;;;;;;10.70;6.78;;;19.40;99.90;;;;;;5046069;28;20069;-88
2021/06/19 05:59:27;;;;;;;10.70;6.72;;;19.50;99.90;;;;;;5041662;28;20107;-89
2021/06/19 06:01:53;;;;;;;11.73;6.55;;;19.50;99.90;;;;;;5048571;28;20521;-88
2021/06/19 06:04:19;;;;;;;10.88;6.80;;;19.60;99.90;;;;;;5043587;28;20049;-89
2021/06/19 06:06:45;;;;;;;11.77;6.35;;;19.70;99.90;;;;;;5047865;28;20033;-89
2021/06/19 06:09:10;;;;;;;12.82;6.30;;;19.70;99.90;;;;;;5048088;28;20497;-89
2021/06/19 06:11:36;;;;;;;12.68;5.80;;;19.80;99.90;;;;;;5050047;28;20029;-88
2021/06/19 06:14:02;;;;;;;16.25;6.88;;;19.80;99.90;;;;;;5047977;28;20499;-88
2021/06/19 06:16:28;;;;;;;10.88;6.82;;;19.90;99.90;;;;;;5049987;28;20039;-89
2021/06/19 06:18:53;;;;;;;8.38;5.80;;;19.90;99.90;;;;;;5046513;28;20013;-88
2021/06/19 06:21:19;;;;;;;12.02;5.78;;;19.90;99.90;;;;;;5042125;28;20036;-86
2021/06/19 06:23:45;;;;;;;10.18;6.15;;;20.00;99.90;;;;;;5048869;28;20032;-88
2021/06/19 06:26:12;;;;;;;12.10;5.97;;;20.00;99.90;;;;;;5044464;28;20028;-88
2021/06/19 06:28:38;;;;;;;8.30;5.13;;;20.10;99.90;;;;;;5049312;28;20025;-89
2021/06/19 06:31:04;;;;;;;9.10;5.63;;;20.10;99.90;;;;;;5043268;28;20040;-89
2021/06/19 06:33:30;;;;;;;14.55;5.85;;;20.20;99.90;;;;;;5049069;28;20233;-88
2021/06/19 06:35:56;;;;;;;10.30;5.72;;;20.20;99.90;;;;;;5048861;28;20021;-89
2021/06/19 06:38:22;;;;;;;7.00;5.30;;;20.40;99.90;;;;;;5044831;28;20029;-88
2021/06/19 06:40:48;;;;;;;10.00;5.28;;;20.40;99.90;;;;;;5049787;28;20037;-89
2021/06/19 06:43:14;;;;;;;12.38;5.88;;;20.40;99.90;;;;;;5049346;28;20048;-89
2021/06/19 06:45:39;;;;;;;12.90;4.93;;;20.50;99.90;;;;;;5041351;28;20029;-89
2021/06/19 06:48:06;;;;;;;11.80;4.93;;;20.70;99.90;;;;;;5048398;28;20021;-89
2021/06/19 06:50:32;;;;;;;9.15;4.85;;;21.00;99.90;;;;;;5044765;28;20075;-89
2021/06/19 06:52:58;;;;;;;7.35;4.70;;;21.30;99.90;;;;;;5051759;28;20028;-89
2021/06/19 06:55:23;;;;;;;14.30;4.22;;;21.60;99.90;;;;;;5050845;28;20029;-90
2021/06/19 06:57:49;;;;;;;9.32;4.63;;;21.70;99.90;;;;;;5052884;28;20417;-89
2021/06/19 07:00:15;;;;;;;7.72;4.13;;;21.90;99.90;;;;;;5046913;28;20108;-89
2021/06/19 07:02:42;;;;;;;9.82;4.10;;;22.10;99.90;;;;;;5045830;28;20033;-89
2021/06/19 07:05:09;;;;;;;10.20;4.32;;;22.40;99.90;;;;;;5045147;28;20029;-89
2021/06/19 07:07:38;;;;;;;10.63;4.15;;;22.50;99.90;;;;;;5044241;28;20110;-89
2021/06/19 07:10:06;;;;;;;10.32;3.80;;;22.50;99.90;;;;;;5043889;28;20030;-89
2021/06/19 07:12:32;;;;;;;7.82;3.28;;;22.60;99.90;;;;;;5041958;28;20107;-89
2021/06/19 07:14:57;;;;;;;6.63;4.05;;;22.60;99.90;;;;;;5048150;28;20171;-89
2021/06/19 07:17:26;;;;;;;9.02;3.47;;;22.60;99.90;;;;;;5053529;28;20021;-89
2021/06/19 07:19:52;;;;;;;8.10;3.25;;;22.50;99.90;;;;;;5050853;28;20028;-89
2021/06/19 07:22:18;;;;;;;6.00;3.28;;;22.50;99.90;;;;;;5053091;28;20025;-89
2021/06/19 07:24:43;;;;;;;5.68;3.45;;;22.60;99.90;;;;;;5043998;28;20028;-87
2021/06/19 07:27:09;;;;;;;6.55;3.35;;;22.60;99.90;;;;;;5051124;28;20326;-87
2021/06/19 07:29:35;;;;;;;9.80;3.47;;;22.60;99.90;;;;;;5042489;28;20033;-87
2021/06/19 07:32:00;;;;;;;6.45;3.85;;;22.60;99.90;;;;;;5050252;28;20493;-87
2021/06/19 07:34:27;;;;;;;9.38;4.05;;;22.60;99.90;;;;;;5043730;28;20014;-87
2021/06/19 07:36:53;;;;;;;7.63;3.50;;;22.50;99.90;;;;;;5047594;28;20408;-87
2021/06/19 07:39:19;;;;;;;7.72;3.60;;;22.40;99.90;;;;;;5049166;28;20101;-87
2021/06/19 07:41:44;;;;;;;8.57;3.58;;;22.50;99.90;;;;;;5052413;28;20503;-87
2021/06/19 07:44:11;;;;;;;12.32;4.57;;;22.30;99.90;;;;;;5051667;28;20100;-87
2021/06/19 07:46:37;;;;;;;6.32;3.63;;;22.40;99.90;;;;;;5046958;28;20017;-87
2021/06/19 07:49:03;;;;;;;9.48;4.10;;;22.10;99.90;;;;;;5051617;28;20036;-87
2021/06/19 07:51:29;;;;;;;6.43;3.30;;;22.20;99.90;;;;;;5046338;28;20108;-87
2021/06/19 07:53:55;;;;;;;8.98;3.75;;;22.20;99.90;;;;;;5051404;28;20044;-87
2021/06/19 07:56:21;;;;;;;8.88;4.00;;;22.10;99.90;;;;;;5051732;28;20025;-87
2021/06/19 07:58:46;;;;;;;7.60;5.25;;;22.00;99.90;;;;;;5050288;28;20516;-88
2021/06/19 08:01:12;;;;;;;9.73;5.68;;;21.70;99.90;;;;;;5038911;28;20022;-87
2021/06/19 08:03:38;;;;;;;10.63;5.47;;;21.20;99.90;;;;;;5047050;28;20064;-87
2021/06/19 08:06:04;;;;;;;11.43;5.93;;;21.00;99.90;;;;;;5040956;28;20025;-87
2021/06/19 08:08:29;;;;;;;9.32;5.28;;;21.00;99.90;;;;;;5046504;28;20036;-87
2021/06/19 08:10:55;;;;;;;10.02;5.57;;;21.00;99.90;;;;;;5040775;28;20030;-87
2021/06/19 08:13:21;;;;;;;8.85;5.50;;;20.90;99.90;;;;;;5045797;28;20067;-87
2021/06/19 08:15:46;;;;;;;9.65;6.38;;;20.80;99.90;;;;;;5048514;28;20025;-87
2021/06/19 08:18:12;;;;;;;9.13;6.05;;;20.90;99.90;;;;;;5051140;28;20112;-87
2021/06/19 08:20:38;;;;;;;11.02;5.70;;;21.00;99.90;;;;;;5043101;28;20481;-87
2021/06/19 08:23:04;;;;;;;9.38;5.82;;;21.10;99.90;;;;;;5050752;28;20489;-87
2021/06/19 08:25:30;;;;;;;11.50;5.70;;;21.10;99.90;;;;;;5042573;28;20401;-87
2021/06/19 08:27:56;;;;;;;12.65;6.07;;;21.10;99.90;;;;;;5049774;28;20064;-88
2021/06/19 08:30:22;;;;;;;12.27;6.15;;;21.30;99.90;;;;;;5042372;28;20199;-89
2021/06/19 08:32:48;;;;;;;9.98;5.45;;;21.40;99.90;;;;;;5049629;28;20120;-88
2021/06/19 08:35:14;;;;;;;10.18;5.88;;;21.40;99.90;;;;;;5042477;28;20615;-88
2021/06/19 08:37:40;;;;;;;9.95;5.22;;;21.40;99.90;;;;;;5051041;28;20096;-88
2021/06/19 08:40:07;;;;;;;9.13;4.97;;;21.50;99.90;;;;;;5042465;28;20123;-88
2021/06/19 08:42:34;;;;;;;14.15;5.60;;;21.60;99.90;;;;;;5050018;28;20386;-86
2021/06/19 08:45:00;;;;;;;9.13;5.07;;;21.70;99.90;;;;;;5048606;28;20120;-75
2021/06/19 08:47:35;;;;;;;11.35;5.47;;;21.90;99.90;;;;;;5048359;28;20100;-75
2021/06/19 08:50:06;;;;;;;12.18;5.32;;;22.20;99.90;;;;;;5048200;28;20033;-75
2021/06/19 08:52:34;;;;;;;7.70;5.03;;;22.40;99.90;;;;;;5048424;28;20013;-75
2021/06/19 08:55:00;;;;;;;10.95;4.88;;;22.50;99.90;;;;;;5047616;28;20025;-75
2021/06/19 08:57:26;;;;;;;9.48;4.95;;;22.30;99.90;;;;;;5037183;28;20045;-75
2021/06/19 08:59:52;;;;;;;11.48;4.72;;;22.20;99.90;;;;;;5047697;28;20522;-75
2021/06/19 09:02:19;;;;;;;10.43;4.82;;;22.10;99.90;;;;;;5036327;28;20025;-75
2021/06/19 09:04:59;;;;;;;9.63;4.88;;;22.20;99.90;;;;;;5041298;28;20029;-75
2021/06/19 09:07:50;;;;;;;8.93;4.63;;;22.30;99.90;;;;;;5051279;28;20029;-75
2021/06/19 09:10:21;;;;;;;12.70;4.70;;;22.40;99.90;;;;;;5044054;28;20378;-75
2021/06/19 09:12:56;;;;;;;11.73;4.90;;;22.40;99.90;;;;;;5044687;28;20493;-78
2021/06/19 09:15:22;;;;;;;13.60;5.35;;;21.90;99.90;;;;;;5044163;28;20096;-78
2021/06/19 09:18:11;;;;;;;8.65;5.50;;;21.70;99.90;;;;;;5043983;28;20163;-78
2021/06/19 09:20:38;;;;;;;11.77;6.20;;;21.40;99.90;;;;;;5039489;28;20033;-78
2021/06/19 09:23:07;;;;;;;10.93;6.38;;;21.10;99.90;;;;;;5044789;28;20056;-77
2021/06/19 09:25:33;;;;;;;13.73;6.90;;;20.80;99.90;;;;;;5039347;28;20018;-77
2021/06/19 09:27:59;;;;;;;15.77;8.40;;;20.70;99.90;;;;;;5043490;28;20033;-77
2021/06/19 09:30:25;;;;;;;27.90;8.82;;;20.60;99.90;;;;;;5041019;28;20496;-77
2021/06/19 09:32:56;;;;;;;14.07;8.18;;;20.40;99.90;;;;;;5040980;28;20489;-77
2021/06/19 09:35:29;;;;;;;13.15;7.80;;;20.40;99.90;;;;;;5041255;28;20028;-77
2021/06/19 09:38:05;;;;;;;16.00;8.20;;;20.40;99.90;;;;;;5049677;28;20013;-76
2021/06/19 09:40:47;;;;;;;15.77;8.32;;;20.50;99.90;;;;;;5041257;28;20277;-77
2021/06/19 09:43:23;;;;;;;14.98;7.95;;;20.60;99.90;;;;;;5049542;28;20025;-79
2021/06/19 09:46:01;;;;;;;9.80;7.82;;;20.60;99.90;;;;;;5041065;28;20044;-82
2021/06/19 09:48:38;;;;;;;13.57;7.50;;;20.60;99.90;;;;;;5040330;28;20032;-90
2021/06/19 09:51:17;;;;;;;14.20;8.20;;;20.60;99.90;;;;;;5040915;28;20028;-89
2021/06/19 09:53:52;;;;;;;14.55;8.73;;;20.60;99.90;;;;;;5039749;28;20017;-88
2021/06/19 09:56:20;;;;;;;14.88;9.40;;;20.50;99.90;;;;;;5036907;28;20033;-85
2021/06/19 09:58:54;;;;;;;10.50;7.88;;;20.40;99.90;;;;;;5041327;28;20084;-84
2021/06/19 10:01:40;;;;;;;13.85;9.02;;;20.30;99.90;;;;;;5048765;28;20053;-84
2021/06/19 10:04:06;;;;;;;15.70;8.88;;;20.50;99.90;;;;;;5048801;28;20373;-85
2021/06/19 10:06:36;;;;;;;12.35;7.35;;;20.50;99.90;;;;;;5049939;28;20056;-84
2021/06/19 10:09:02;;;;;;;20.92;8.98;;;20.50;99.90;;;;;;5047936;28;20025;-85
2021/06/19 10:11:28;;;;;;;23.38;9.70;;;20.50;99.90;;;;;;5035912;28;20087;-85
2021/06/19 10:13:57;;;;;;;41.53;14.10;;;20.50;99.90;;;;;;5048430;28;20048;-86
2021/06/19 10:16:24;;;;;;;151.50;39.47;;;20.70;99.90;;;;;;5049672;28;20081;-85
2021/06/19 10:18:51;;;;;;;27.40;11.75;;;20.70;99.90;;;;;;5046380;28;20496;-85
2021/06/19 10:21:18;;;;;;;20.90;9.60;;;21.00;99.90;;;;;;5043991;28;20390;-86
2021/06/19 10:23:44;;;;;;;14.43;7.53;;;21.30;99.90;;;;;;5049034;28;20033;-86
2021/06/19 10:26:10;;;;;;;10.88;6.28;;;21.80;99.90;;;;;;5037338;28;20018;-87
2021/06/19 10:28:47;;;;;;;12.05;6.38;;;22.30;99.90;;;;;;5044094;28;20036;-88
2021/06/19 10:31:17;;;;;;;9.00;5.68;;;22.60;99.90;;;;;;5073828;28;20416;-88
2021/06/19 10:33:43;;;;;;;12.20;5.72;;;22.80;99.90;;;;;;5047283;28;20029;-86
2021/06/19 10:36:11;;;;;;;11.40;6.50;;;22.70;99.90;;;;;;5049597;28;20025;-82
2021/06/19 10:38:53;;;;;;;11.57;6.30;;;22.40;99.90;;;;;;5049289;28;20016;-83
2021/06/19 10:41:42;;;;;;;12.57;7.30;;;22.20;99.90;;;;;;5042580;28;20013;-82
2021/06/19 10:44:09;;;;;;;15.52;8.80;;;21.80;99.90;;;;;;5045123;28;20031;-80
2021/06/19 10:46:37;;;;;;;11.80;8.23;;;21.30;99.90;;;;;;5048265;28;20013;-79
2021/06/19 10:49:23;;;;;;;13.77;8.25;;;21.00;99.90;;;;;;5047149;28;20120;-78
2021/06/19 10:51:49;;;;;;;8.88;7.60;;;20.80;99.90;;;;;;5028805;28;20045;-79
2021/06/19 10:54:19;;;;;;;16.80;9.35;;;20.60;99.90;;;;;;5043344;28;20111;-78
2021/06/19 10:56:49;;;;;;;29.98;9.10;;;20.40;99.90;;;;;;5040105;28;20108;-79
2021/06/19 10:59:35;;;;;;;21.50;8.75;;;20.20;99.90;;;;;;5048579;28;20037;-78
2021/06/19 11:02:02;;;;;;;22.90;8.95;;;20.20;99.90;;;;;;5039015;28;20146;-79
2021/06/19 11:04:54;;;;;;;28.27;10.57;;;20.10;99.90;;;;;;5048116;28;20104;-79
2021/06/19 11:07:20;;;;;;;31.35;9.15;;;20.30;99.90;;;;;;5039523;28;20033;-78
2021/06/19 11:09:50;;;;;;;19.45;6.65;;;20.50;99.90;;;;;;5047225;28;20517;-78
2021/06/19 11:12:22;;;;;;;17.02;5.22;;;20.80;99.90;;;;;;5038553;28;20420;-78
2021/06/19 11:14:53;;;;;;;10.65;3.63;;;21.20;99.90;;;;;;5045675;28;20688;-79
2021/06/19 11:17:22;;;;;;;10.88;3.15;;;21.80;99.90;;;;;;5038457;28;20074;-79
2021/06/19 11:19:54;;;;;;;10.55;3.75;;;22.00;99.90;;;;;;5040825;28;20021;-80
2021/06/19 11:22:31;;;;;;;12.35;3.92;;;22.20;99.90;;;;;;5039649;28;20071;-81
2021/06/19 11:25:26;;;;;;;5.40;2.42;;;22.10;99.90;;;;;;5041963;28;20029;-80
2021/06/19 11:28:00;;;;;;;9.30;3.05;;;22.00;99.90;;;;;;5037405;28;20018;-81
2021/06/19 11:30:35;;;;;;;7.00;2.67;;;21.80;99.90;;;;;;5057457;28;20138;-81
2021/06/19 11:33:24;;;;;;;10.63;3.08;;;21.60;99.90;;;;;;5047272;28;20476;-82
2021/06/19 11:36:04;;;;;;;9.52;3.83;;;21.40;99.90;;;;;;5038556;28;20052;-82
2021/06/19 11:38:55;;;;;;;9.93;3.83;;;21.40;99.90;;;;;;5051913;28;20063;-82
2021/06/19 11:41:31;;;;;;;6.13;2.63;;;21.30;99.90;;;;;;5039922;28;20104;-82
2021/06/19 11:43:57;;;;;;;10.27;2.67;;;21.20;99.90;;;;;;5051611;28;20021;-82
2021/06/19 11:46:25;;;;;;;10.90;3.63;;;21.30;99.90;;;;;;5041346;28;20397;-81
2021/06/19 11:48:59;;;;;;;10.75;2.80;;;21.30;99.90;;;;;;5050616;28;20067;-81
2021/06/19 11:51:27;;;;;;;5.10;2.20;;;21.50;99.90;;;;;;5040687;28;20061;-81
2021/06/19 11:53:53;;;;;;;13.50;2.75;;;21.50;99.90;;;;;;5047215;28;20034;-81
2021/06/19 11:56:27;;;;;;;9.02;2.90;;;21.30;99.90;;;;;;5039111;28;20036;-81
2021/06/19 11:59:04;;;;;;;9.80;2.97;;;21.50;99.90;;;;;;5047320;28;20047;-81
2021/06/19 12:01:42;;;;;;;11.75;3.33;;;21.70;99.90;;;;;;5036911;28;20104;-81
2021/06/19 12:04:16;;;;;;;11.60;2.97;;;21.60;99.90;;;;;;5047147;28;20102;-81
2021/06/19 12:06:55;;;;;;;5.30;2.08;;;21.40;99.90;;;;;;5051733;28;20508;-81
2021/06/19 12:09:26;;;;;;;7.18;2.10;;;21.20;99.90;;;;;;5045957;28;20041;-81
2021/06/19 12:11:55;;;;;;;7.50;2.30;;;21.00;99.90;;;;;;5049033;28;20083;-81
2021/06/19 12:14:31;;;;;;;7.05;2.55;;;20.80;99.90;;;;;;5045887;28;20505;-81
2021/06/19 12:17:09;;;;;;;6.40;2.20;;;20.70;99.90;;;;;;5081766;28;20035;-82
2021/06/19 12:19:38;;;;;;;6.53;2.22;;;20.90;99.90;;;;;;5043778;28;20025;-82
2021/06/19 12:22:07;;;;;;;6.13;2.55;;;21.00;99.90;;;;;;5050282;28;20482;-81
2021/06/19 12:24:44;;;;;;;5.35;2.20;;;21.00;99.90;;;;;;5044160;28;20025;-80
2021/06/19 12:27:18;;;;;;;3.38;1.90;;;21.10;99.90;;;;;;5050084;28;20078;-81
2021/06/19 12:29:46;;;;;;;3.42;2.10;;;21.10;99.90;;;;;;5048567;28;20025;-79
2021/06/19 12:32:30;;;;;;;4.75;2.40;;;21.10;99.90;;;;;;5058529;28;20041;-80
2021/06/19 12:34:59;;;;;;;3.60;2.67;;;21.10;99.90;;;;;;5049607;28;20029;-80
2021/06/19 12:37:31;;;;;;;2.95;2.50;;;21.00;99.90;;;;;;5046609;28;20411;-80
2021/06/19 12:39:57;;;;;;;4.80;2.60;;;21.00;99.90;;;;;;5049305;28;20096;-80
2021/06/19 12:42:33;;;;;;;3.38;2.38;;;21.10;99.90;;;;;;5045874;28;20024;-80
2021/06/19 12:45:09;;;;;;;4.40;1.98;;;21.30;99.90;;;;;;5048809;28;20632;-80
2021/06/19 12:47:38;;;;;;;3.38;2.00;;;21.70;99.90;;;;;;5045921;28;20021;-84
2021/06/19 12:50:06;;;;;;;4.07;1.98;;;22.00;99.90;;;;;;5048339;28;20033;-81